createdAt,value
2022-08-31T00:01:48.713Z,20.87
2022-08-31T00:04:15.209Z,20.80
2022-08-31T00:06:41.784Z,20.78
2022-08-31T00:09:08.362Z,20.89
2022-08-31T00:11:36.232Z,20.92
2022-08-31T00:14:07.849Z,20.83
2022-08-31T00:16:41.376Z,20.73
2022-08-31T00:19:07.926Z,20.84
2022-08-31T00:21:34.543Z,20.95
2022-08-31T00:24:01.172Z,20.99
2022-08-31T00:26:27.711Z,20.93
2022-08-31T00:28:54.215Z,20.87
2022-08-31T00:31:20.929Z,20.89
2022-08-31T00:33:52.646Z,20.93
2022-08-31T00:36:24.440Z,20.89
2022-08-31T00:38:51.905Z,20.93
2022-08-31T00:41:21.052Z,20.89
2022-08-31T00:43:50.889Z,20.82
2022-08-31T00:46:24.352Z,20.86
2022-08-31T00:48:58.380Z,20.82
2022-08-31T00:51:27.013Z,20.81
2022-08-31T00:53:53.606Z,20.73
2022-08-31T00:56:21.288Z,20.70
2022-08-31T00:58:54.926Z,20.79
2022-08-31T01:01:22.393Z,20.89
2022-08-31T01:03:49.486Z,20.94
2022-08-31T01:06:17.804Z,20.83
2022-08-31T01:08:46.610Z,20.73
2022-08-31T01:11:14.641Z,20.65
2022-08-31T01:13:42.128Z,20.74
2022-08-31T01:16:12.979Z,20.77
2022-08-31T01:18:40.904Z,20.77
2022-08-31T01:21:22.445Z,20.60
2022-08-31T01:23:48.971Z,20.48
2022-08-31T01:26:22.512Z,20.50
2022-08-31T01:28:50.958Z,20.56
2022-08-31T01:31:23.251Z,20.48
2022-08-31T01:33:50.456Z,20.37
2022-08-31T01:36:17.664Z,20.27
2022-08-31T01:38:45.162Z,20.43
2022-08-31T01:41:12.997Z,20.56
2022-08-31T01:43:40.868Z,20.61
2022-08-31T01:46:09.402Z,20.55
2022-08-31T01:48:37.402Z,20.54
2022-08-31T01:51:12.406Z,20.54
2022-08-31T01:53:39.589Z,20.53
2022-08-31T01:56:21.504Z,20.61
2022-08-31T01:58:48.053Z,20.67
2022-08-31T02:01:33.067Z,20.61
2022-08-31T02:04:03.491Z,20.56
2022-08-31T02:06:31.283Z,20.44
2022-08-31T02:08:57.892Z,20.50
2022-08-31T02:11:24.426Z,20.54
2022-08-31T02:13:51.010Z,20.58
2022-08-31T02:16:17.511Z,20.55
2022-08-31T02:18:44.040Z,20.55
2022-08-31T02:21:10.504Z,20.51
2022-08-31T02:23:36.956Z,20.49
2022-08-31T02:26:03.415Z,20.51
2022-08-31T02:28:30.008Z,20.57
2022-08-31T02:30:56.535Z,20.63
2022-08-31T02:33:25.013Z,20.49
2022-08-31T02:35:51.852Z,20.45
2022-08-31T02:38:22.874Z,20.55
2022-08-31T02:40:51.028Z,20.58
2022-08-31T02:43:24.676Z,20.43
2022-08-31T02:45:53.464Z,20.36
2022-08-31T02:48:21.405Z,20.46
2022-08-31T02:50:50.350Z,20.58
2022-08-31T02:53:19.755Z,20.55
2022-08-31T02:55:46.520Z,20.56
2022-08-31T02:58:14.011Z,20.61
2022-08-31T03:00:45.511Z,20.63
2022-08-31T03:03:12.029Z,20.68
2022-08-31T03:05:38.756Z,20.66
2022-08-31T03:08:05.353Z,20.68
2022-08-31T03:10:32.026Z,20.73
2022-08-31T03:12:58.929Z,20.70
2022-08-31T03:15:26.581Z,20.77
2022-08-31T03:17:53.127Z,20.84
2022-08-31T03:20:22.385Z,20.87
2022-08-31T03:22:49.052Z,20.85
2022-08-31T03:25:17.586Z,20.90
2022-08-31T03:27:45.881Z,20.86
2022-08-31T03:30:16.842Z,20.76
2022-08-31T03:32:45.451Z,20.74
2022-08-31T03:35:12.788Z,20.68
2022-08-31T03:37:39.272Z,20.72
2022-08-31T03:40:06.512Z,20.70
2022-08-31T03:42:32.993Z,20.70
2022-08-31T03:44:59.697Z,20.73
2022-08-31T03:47:28.327Z,20.74
2022-08-31T03:49:55.098Z,20.70
2022-08-31T03:52:21.839Z,20.64
2022-08-31T03:54:48.416Z,20.63
2022-08-31T03:57:14.944Z,20.73
2022-08-31T03:59:41.472Z,20.78
2022-08-31T04:02:08.011Z,20.72
2022-08-31T04:04:34.990Z,20.63
2022-08-31T04:07:01.587Z,20.62
2022-08-31T04:09:28.276Z,20.63
2022-08-31T04:11:54.772Z,20.75
2022-08-31T04:14:21.348Z,20.84
2022-08-31T04:16:47.829Z,20.93
2022-08-31T04:19:16.086Z,21.02
2022-08-31T04:21:44.494Z,21.01
2022-08-31T04:24:11.965Z,21.05
2022-08-31T04:26:40.783Z,21.05
2022-08-31T04:29:12.374Z,21.09
2022-08-31T04:31:40.047Z,21.07
2022-08-31T04:34:06.571Z,21.13
2022-08-31T04:36:33.158Z,21.18
2022-08-31T04:39:01.996Z,21.05
2022-08-31T04:41:30.845Z,21.05
2022-08-31T04:43:59.819Z,21.15
2022-08-31T04:46:27.424Z,21.18
2022-08-31T04:48:54.218Z,21.21
2022-08-31T04:51:27.137Z,21.24
2022-08-31T04:53:54.682Z,21.14
2022-08-31T04:56:31.168Z,21.19
2022-08-31T04:59:03.524Z,21.12
2022-08-31T05:01:42.785Z,21.17
2022-08-31T05:04:11.109Z,21.10
2022-08-31T05:06:40.664Z,21.08
2022-08-31T05:09:13.678Z,21.01
2022-08-31T05:11:40.963Z,21.06
2022-08-31T05:14:08.888Z,21.06
2022-08-31T05:16:38.651Z,21.12
2022-08-31T05:19:06.345Z,21.07
2022-08-31T05:21:35.905Z,21.08
2022-08-31T05:24:05.890Z,21.07
2022-08-31T05:26:35.334Z,21.05
2022-08-31T05:29:06.328Z,21.06
2022-08-31T05:31:35.858Z,21.04
2022-08-31T05:34:02.473Z,20.91
2022-08-31T05:36:28.934Z,20.83
2022-08-31T05:39:00.803Z,20.82
2022-08-31T05:41:29.046Z,20.72
2022-08-31T05:43:55.699Z,20.67
2022-08-31T05:46:22.269Z,20.66
2022-08-31T05:48:49.425Z,20.56
2022-08-31T05:51:18.180Z,20.43
2022-08-31T05:53:45.800Z,20.42
2022-08-31T05:56:16.165Z,20.36
2022-08-31T05:58:46.777Z,20.39
2022-08-31T06:01:17.820Z,20.37
2022-08-31T06:03:45.156Z,20.42
2022-08-31T06:06:12.728Z,20.46
2022-08-31T06:08:40.211Z,20.51
2022-08-31T06:11:08.083Z,20.57
2022-08-31T06:13:34.591Z,20.53
2022-08-31T06:16:03.903Z,20.46
2022-08-31T06:29:10.170Z,20.51
2022-08-31T06:31:48.172Z,20.43
2022-08-31T06:34:18.024Z,20.43
2022-08-31T06:36:45.586Z,20.43
2022-08-31T06:39:13.719Z,20.40
2022-08-31T06:41:43.149Z,20.36
2022-08-31T06:44:14.389Z,20.37
2022-08-31T06:46:42.218Z,20.36
2022-08-31T06:49:15.728Z,20.37
2022-08-31T06:51:43.472Z,20.42
2022-08-31T06:54:29.120Z,20.44
2022-08-31T06:57:02.913Z,20.45
2022-08-31T06:59:31.423Z,20.42
2022-08-31T07:02:00.350Z,20.40
2022-08-31T07:04:28.053Z,20.34
2022-08-31T07:06:56.567Z,20.16
2022-08-31T07:09:24.113Z,20.14
2022-08-31T07:11:53.319Z,20.17
2022-08-31T07:14:27.404Z,20.16
2022-08-31T07:16:57.076Z,20.14
2022-08-31T07:19:30.079Z,20.19
2022-08-31T07:22:01.184Z,20.23
2022-08-31T07:24:31.637Z,20.36
2022-08-31T07:27:02.311Z,20.74
2022-08-31T07:29:33.465Z,20.85
2022-08-31T07:32:01.102Z,20.64
2022-08-31T07:34:31.373Z,20.62
2022-08-31T07:37:19.682Z,20.50
2022-08-31T07:40:09.300Z,20.40
2022-08-31T07:42:46.806Z,20.54
2022-08-31T07:45:24.900Z,20.56
2022-08-31T07:47:58.289Z,20.82
2022-08-31T07:53:13.883Z,21.20
2022-08-31T07:55:49.511Z,21.47
2022-08-31T07:58:23.070Z,21.43
2022-08-31T08:00:51.035Z,21.32
2022-08-31T08:03:21.213Z,21.48
2022-08-31T08:05:48.787Z,21.58
2022-08-31T08:08:25.744Z,21.55
2022-08-31T08:10:54.188Z,21.56
2022-08-31T08:13:21.348Z,21.67
2022-08-31T08:15:52.213Z,21.82
2022-08-31T08:18:20.268Z,21.85
2022-08-31T08:20:49.438Z,21.47
2022-08-31T08:23:17.972Z,21.43
2022-08-31T08:25:46.368Z,21.30
2022-08-31T08:31:05.196Z,20.87
2022-08-31T08:33:33.808Z,20.92
2022-08-31T08:36:04.665Z,21.44
2022-08-31T08:38:31.215Z,21.78
2022-08-31T08:41:00.760Z,21.85
2022-08-31T08:43:32.562Z,21.50
2022-08-31T08:46:20.111Z,21.56
2022-08-31T08:48:55.849Z,21.83
2022-08-31T08:51:26.693Z,21.64
2022-08-31T08:53:59.955Z,21.34
2022-08-31T08:56:33.938Z,21.65
2022-08-31T08:59:01.295Z,21.96
2022-08-31T09:01:28.986Z,21.78
2022-08-31T09:04:07.675Z,21.66
2022-08-31T09:06:54.430Z,21.56
2022-08-31T09:09:42.528Z,21.22
2022-08-31T09:12:35.299Z,21.01
2022-08-31T09:15:15.619Z,20.92
2022-08-31T09:17:48.047Z,20.92
2022-08-31T09:20:16.515Z,20.89
2022-08-31T09:22:50.090Z,20.91
2022-08-31T09:25:29.889Z,20.89
2022-08-31T09:28:00.010Z,20.86
2022-08-31T09:30:38.741Z,21.02
2022-08-31T09:33:05.544Z,21.13
2022-08-31T09:35:42.659Z,21.56
2022-08-31T09:38:12.453Z,21.44
2022-08-31T09:40:45.391Z,21.35
2022-08-31T09:43:26.305Z,21.60
2022-08-31T09:46:31.560Z,21.75
2022-08-31T09:49:03.011Z,21.86
2022-08-31T09:51:37.604Z,21.97
2022-08-31T09:55:01.102Z,21.82
2022-08-31T09:57:44.683Z,22.01
2022-08-31T10:00:21.180Z,22.42
2022-08-31T10:02:57.283Z,22.81
2022-08-31T10:05:40.541Z,22.82
2022-08-31T10:08:22.292Z,22.84
2022-08-31T10:10:51.190Z,23.03
2022-08-31T10:13:24.772Z,22.90
2022-08-31T10:15:58.821Z,23.12
2022-08-31T10:18:38.058Z,23.43
2022-08-31T10:21:13.535Z,23.42
2022-08-31T10:23:54.563Z,23.38
2022-08-31T10:26:35.997Z,23.33
2022-08-31T10:29:16.716Z,23.43
2022-08-31T10:31:53.773Z,23.46
2022-08-31T10:35:16.375Z,23.77
2022-08-31T10:38:08.185Z,24.07
2022-08-31T10:40:51.486Z,23.71
2022-08-31T10:43:22.289Z,23.59
2022-08-31T10:45:52.507Z,23.71
2022-08-31T10:48:22.775Z,23.99
2022-08-31T10:50:51.748Z,24.34
2022-08-31T10:53:52.262Z,24.20
2022-08-31T10:56:30.008Z,24.50
2022-08-31T10:59:33.344Z,24.61
2022-08-31T11:02:28.063Z,24.79
2022-08-31T11:05:22.912Z,24.94
2022-08-31T11:07:55.790Z,25.02
2022-08-31T11:10:42.380Z,25.28
2022-08-31T11:13:38.371Z,24.78
2022-08-31T11:16:38.967Z,24.73
2022-08-31T11:19:19.441Z,24.89
2022-08-31T11:22:02.799Z,25.00
2022-08-31T11:24:49.481Z,25.03
2022-08-31T11:27:28.278Z,25.13
2022-08-31T11:30:00.726Z,25.13
2022-08-31T11:32:47.832Z,25.09
2022-08-31T11:35:15.554Z,25.35
2022-08-31T11:37:46.701Z,25.27
2022-08-31T11:40:14.368Z,25.10
2022-08-31T11:42:40.831Z,25.14
2022-08-31T11:45:32.458Z,25.34
2022-08-31T11:48:00.521Z,25.59
2022-08-31T11:50:38.909Z,25.51
2022-08-31T11:53:34.895Z,25.53
2022-08-31T11:56:03.901Z,25.55
2022-08-31T11:58:33.658Z,25.37
2022-08-31T12:01:03.971Z,25.24
2022-08-31T12:03:36.950Z,25.27
2022-08-31T12:06:05.562Z,25.63
2022-08-31T12:08:52.333Z,25.83
2022-08-31T12:11:44.385Z,25.81
2022-08-31T12:14:24.829Z,25.65
2022-08-31T12:17:21.711Z,25.60
2022-08-31T12:20:01.662Z,25.43
2022-08-31T12:22:53.376Z,25.41
2022-08-31T12:25:37.784Z,25.70
2022-08-31T12:28:31.138Z,25.74
2022-08-31T12:31:09.875Z,25.61
2022-08-31T12:33:39.878Z,25.72
2022-08-31T12:36:18.361Z,25.71
2022-08-31T12:38:45.198Z,25.80
2022-08-31T12:41:14.090Z,25.80
2022-08-31T12:43:49.173Z,25.83
2022-08-31T12:46:25.186Z,26.06
2022-08-31T12:49:03.658Z,26.13
2022-08-31T12:51:43.759Z,26.11
2022-08-31T12:54:25.485Z,26.25
2022-08-31T12:57:25.717Z,26.10
2022-08-31T13:00:13.091Z,26.05
2022-08-31T13:02:44.512Z,25.99
2022-08-31T13:05:35.040Z,26.06
2022-08-31T13:08:18.506Z,26.13
2022-08-31T13:10:45.012Z,26.02
2022-08-31T13:13:22.399Z,25.94
2022-08-31T13:15:49.416Z,26.05
2022-08-31T13:18:24.598Z,26.12
2022-08-31T13:21:05.605Z,26.22
2022-08-31T13:23:34.850Z,26.33
2022-08-31T13:26:20.532Z,26.40
2022-08-31T13:28:59.289Z,26.34
2022-08-31T13:31:29.360Z,26.34
2022-08-31T13:34:02.870Z,26.28
2022-08-31T13:36:32.340Z,26.15
2022-08-31T13:39:15.861Z,26.16
2022-08-31T13:41:56.288Z,26.28
2022-08-31T13:44:27.770Z,26.31
2022-08-31T13:47:01.092Z,26.19
2022-08-31T13:49:35.922Z,26.15
2022-08-31T13:52:13.717Z,26.14
2022-08-31T13:54:40.527Z,26.21
2022-08-31T13:57:20.577Z,26.37
2022-08-31T13:59:47.738Z,26.37
2022-08-31T14:02:19.505Z,26.34
2022-08-31T14:04:57.400Z,26.34
2022-08-31T14:07:50.497Z,26.26
2022-08-31T14:10:21.172Z,26.13
2022-08-31T14:13:10.072Z,26.18
2022-08-31T14:15:48.933Z,26.25
2022-08-31T14:18:27.537Z,26.36
2022-08-31T14:21:27.430Z,26.38
2022-08-31T14:24:01.241Z,26.40
2022-08-31T14:26:31.490Z,26.25
2022-08-31T14:29:01.402Z,26.23
2022-08-31T14:31:37.753Z,26.24
2022-08-31T14:34:24.392Z,26.28
2022-08-31T14:36:57.748Z,26.24
2022-08-31T14:39:29.877Z,26.27
2022-08-31T14:42:02.121Z,26.12
2022-08-31T14:44:32.218Z,26.11
2022-08-31T14:46:59.127Z,26.08
2022-08-31T14:49:25.614Z,26.23
2022-08-31T14:51:52.132Z,26.36
2022-08-31T14:54:18.681Z,26.35
2022-08-31T14:56:51.183Z,26.47
2022-08-31T14:59:21.170Z,26.50
2022-08-31T15:01:49.185Z,26.36
2022-08-31T15:04:19.323Z,26.26
2022-08-31T15:06:53.843Z,26.41
2022-08-31T15:09:22.835Z,26.39
2022-08-31T15:11:51.183Z,26.39
2022-08-31T15:14:17.727Z,26.45
2022-08-31T15:16:47.920Z,26.41
2022-08-31T15:19:15.377Z,26.45
2022-08-31T15:21:46.148Z,26.41
2022-08-31T15:24:14.857Z,26.37
2022-08-31T15:26:43.552Z,26.32
2022-08-31T15:29:13.702Z,26.31
2022-08-31T15:31:51.279Z,26.21
2022-08-31T15:34:26.627Z,26.18
2022-08-31T15:36:56.109Z,26.18
2022-08-31T15:39:31.814Z,26.21
2022-08-31T15:41:59.585Z,26.21
2022-08-31T15:44:26.335Z,26.26
2022-08-31T15:47:11.513Z,26.25
2022-08-31T15:49:38.205Z,26.18
2022-08-31T15:52:07.132Z,26.18
2022-08-31T15:54:35.691Z,26.19
2022-08-31T15:57:07.649Z,26.17
2022-08-31T15:59:35.472Z,26.18
2022-08-31T16:02:04.110Z,26.16
2022-08-31T16:04:33.180Z,26.15
2022-08-31T16:07:00.840Z,26.16
2022-08-31T16:09:27.564Z,26.15
2022-08-31T16:11:54.096Z,26.12
2022-08-31T16:14:20.565Z,26.07
2022-08-31T16:16:48.963Z,26.03
2022-08-31T16:19:34.034Z,26.05
2022-08-31T16:22:02.933Z,26.07
2022-08-31T16:24:33.027Z,26.12
2022-08-31T16:27:00.479Z,26.10
2022-08-31T16:29:29.486Z,26.03
2022-08-31T16:31:56.547Z,26.03
2022-08-31T16:34:24.059Z,26.03
2022-08-31T16:36:52.947Z,26.03
2022-08-31T16:39:19.547Z,26.06
2022-08-31T16:41:46.924Z,26.01
2022-08-31T16:44:19.910Z,25.96
2022-08-31T16:46:47.122Z,25.93
2022-08-31T16:49:32.574Z,25.89
2022-08-31T16:52:00.639Z,25.83
2022-08-31T16:54:28.576Z,25.78
2022-08-31T16:56:57.574Z,25.74
2022-08-31T16:59:27.163Z,25.73
2022-08-31T17:01:54.594Z,25.73
2022-08-31T17:04:41.488Z,25.74
2022-08-31T17:07:12.568Z,25.76
2022-08-31T17:09:40.027Z,25.80
2022-08-31T17:12:13.074Z,25.82
2022-08-31T17:14:49.903Z,25.84
2022-08-31T17:17:20.051Z,25.86
2022-08-31T17:19:46.736Z,25.85
2022-08-31T17:22:23.340Z,25.85
2022-08-31T17:24:56.133Z,25.82
2022-08-31T17:27:23.873Z,25.78
2022-08-31T17:29:52.193Z,25.74
2022-08-31T17:32:23.276Z,25.73
2022-08-31T17:34:51.599Z,25.69
2022-08-31T17:37:22.948Z,25.60
2022-08-31T17:39:53.001Z,25.55
2022-08-31T17:42:26.665Z,25.51
2022-08-31T17:44:54.446Z,25.49
2022-08-31T17:47:23.304Z,25.48
2022-08-31T17:49:50.954Z,25.40
2022-08-31T17:52:20.270Z,25.37
2022-08-31T17:54:47.249Z,25.34
2022-08-31T17:57:15.843Z,25.33
2022-08-31T17:59:46.296Z,25.24
2022-08-31T18:02:34.765Z,25.12
2022-08-31T18:05:02.338Z,25.04
2022-08-31T18:07:29.579Z,25.00
2022-08-31T18:09:56.208Z,24.90
2022-08-31T18:12:25.402Z,24.84
2022-08-31T18:14:53.673Z,24.81
2022-08-31T18:17:22.286Z,24.82
2022-08-31T18:19:48.853Z,24.82
2022-08-31T18:22:15.677Z,24.78
2022-08-31T18:24:43.171Z,24.73
2022-08-31T18:27:11.811Z,24.71
2022-08-31T18:29:39.361Z,24.71
2022-08-31T18:32:07.424Z,24.67
2022-08-31T18:34:38.828Z,24.61
2022-08-31T18:37:06.202Z,24.56
2022-08-31T18:39:52.793Z,24.52
2022-08-31T18:42:39.208Z,24.48
2022-08-31T18:45:16.687Z,24.39
2022-08-31T18:47:52.642Z,24.34
2022-08-31T18:50:32.333Z,24.29
2022-08-31T18:53:04.243Z,24.28
2022-08-31T18:55:38.094Z,24.27
2022-08-31T18:58:04.736Z,24.24
2022-08-31T19:00:32.956Z,24.26
2022-08-31T19:03:01.245Z,24.27
2022-08-31T19:05:28.776Z,24.27
2022-08-31T19:07:55.660Z,24.22
2022-08-31T19:10:23.153Z,24.25
2022-08-31T19:12:49.920Z,24.23
2022-08-31T19:15:16.588Z,24.23
2022-08-31T19:17:49.199Z,24.24
2022-08-31T19:20:16.939Z,24.20
2022-08-31T19:22:43.414Z,24.16
2022-08-31T19:25:12.040Z,24.16
2022-08-31T19:27:39.146Z,24.10
2022-08-31T19:30:07.874Z,24.04
2022-08-31T19:32:34.307Z,24.08
2022-08-31T19:35:00.754Z,24.06
2022-08-31T19:37:27.632Z,24.04
2022-08-31T19:39:54.071Z,23.96
2022-08-31T19:42:39.682Z,23.98
2022-08-31T19:45:23.313Z,23.98
2022-08-31T19:47:50.934Z,23.92
2022-08-31T19:50:17.864Z,23.89
2022-08-31T19:52:44.517Z,23.89
2022-08-31T19:55:11.440Z,23.84
2022-08-31T19:57:39.018Z,23.85
2022-08-31T20:00:07.957Z,23.91
2022-08-31T20:02:35.911Z,23.93
2022-08-31T20:05:06.230Z,23.91
2022-08-31T20:07:35.773Z,23.85
2022-08-31T20:10:02.647Z,23.80
2022-08-31T20:12:29.689Z,23.75
2022-08-31T20:14:56.263Z,23.74
2022-08-31T20:17:23.831Z,23.75
2022-08-31T20:19:50.929Z,23.76
2022-08-31T20:22:17.796Z,23.76
2022-08-31T20:24:45.023Z,23.74
2022-08-31T20:27:16.288Z,23.70
2022-08-31T20:29:43.109Z,23.64
2022-08-31T20:32:10.011Z,23.66
2022-08-31T20:34:38.153Z,23.67
2022-08-31T20:37:04.963Z,23.57
2022-08-31T20:39:33.280Z,23.50
2022-08-31T20:42:00.403Z,23.43
2022-08-31T20:44:30.577Z,23.45
2022-08-31T20:47:18.103Z,23.41
2022-08-31T20:49:50.088Z,23.34
2022-08-31T20:52:17.084Z,23.37
2022-08-31T20:54:43.961Z,23.33
2022-08-31T20:57:13.523Z,23.24
2022-08-31T20:59:41.476Z,23.18
2022-08-31T21:02:08.664Z,23.21
2022-08-31T21:04:41.874Z,23.21
2022-08-31T21:07:12.057Z,23.14
2022-08-31T21:09:41.145Z,23.05
2022-08-31T21:12:07.822Z,23.02
2022-08-31T21:14:36.556Z,23.01
2022-08-31T21:17:06.088Z,22.91
2022-08-31T21:19:39.214Z,22.94
2022-08-31T21:22:08.186Z,22.92
2022-08-31T21:24:38.693Z,22.91
2022-08-31T21:27:08.993Z,22.91
2022-08-31T21:29:36.513Z,22.88
2022-08-31T21:32:08.974Z,22.91
2022-08-31T21:34:36.721Z,22.92
2022-08-31T21:37:03.244Z,22.92
2022-08-31T21:39:32.220Z,22.98
2022-08-31T21:41:59.239Z,22.96
2022-08-31T21:44:25.971Z,22.93
2022-08-31T21:46:52.636Z,22.83
2022-08-31T21:49:20.462Z,22.77
2022-08-31T21:51:55.815Z,22.68
2022-08-31T21:54:27.177Z,22.66
2022-08-31T21:57:00.103Z,22.64
2022-08-31T21:59:30.274Z,22.62
2022-08-31T22:02:00.912Z,22.56
2022-08-31T22:04:28.307Z,22.56
2022-08-31T22:06:56.313Z,22.61
2022-08-31T22:09:23.720Z,22.62
2022-08-31T22:11:53.902Z,22.64
2022-08-31T22:14:26.106Z,22.69
2022-08-31T22:16:54.696Z,22.73
2022-08-31T22:19:23.001Z,22.82
2022-08-31T22:21:51.638Z,22.80
2022-08-31T22:24:27.303Z,22.72
2022-08-31T22:26:55.097Z,22.69
2022-08-31T22:29:24.206Z,22.73
2022-08-31T22:31:54.119Z,22.72
2022-08-31T22:34:21.134Z,22.68
2022-08-31T22:36:50.721Z,22.61
2022-08-31T22:39:20.287Z,22.55
2022-08-31T22:41:47.335Z,22.49
2022-08-31T22:44:17.555Z,22.42
2022-08-31T22:46:45.348Z,22.41
2022-08-31T22:49:12.854Z,22.48
2022-08-31T22:51:40.878Z,22.41
2022-08-31T22:54:09.772Z,22.35
2022-08-31T22:56:38.333Z,22.20
2022-08-31T22:59:08.163Z,22.13
2022-08-31T23:01:44.436Z,22.05
2022-08-31T23:04:14.428Z,21.97
2022-08-31T23:09:10.146Z,21.91
2022-08-31T23:11:38.589Z,21.87
2022-08-31T23:14:08.935Z,21.90
2022-08-31T23:16:45.761Z,21.95
2022-08-31T23:19:16.472Z,21.90
2022-08-31T23:21:45.882Z,21.93
2022-08-31T23:24:15.607Z,21.87
2022-08-31T23:26:42.617Z,21.92
2022-08-31T23:29:09.337Z,21.91
2022-08-31T23:31:37.983Z,21.96
2022-08-31T23:34:11.439Z,21.97
2022-08-31T23:36:39.059Z,22.02
2022-08-31T23:39:07.076Z,22.07
2022-08-31T23:41:38.751Z,22.01
2022-08-31T23:44:09.153Z,21.89
2022-08-31T23:46:37.687Z,21.94
2022-08-31T23:49:07.901Z,22.04
2022-08-31T23:51:35.587Z,22.02
2022-08-31T23:54:06.380Z,22.00
2022-08-31T23:56:33.071Z,22.01
2022-08-31T23:59:03.132Z,21.93
